This is the latest recevied weather packets stored in our database for station/object EA1ZE. If no packets are shown the sender has not sent any weather packets the latest 10 day(s).
| Time | Temp. | Humidity | Pressure | Rain* | Wind** | Luminosity | Snow |
|---|---|---|---|---|---|---|---|
| 1787858138 | 15.56° C | 69% | 1014 hPa | 0 mm | - | - | - |
| 1787857217 | 16.11° C | 69% | 1013.6 hPa | 0 mm | - | - | - |
| 1787856315 | 16.11° C | 69% | 1013.3 hPa | 0 mm | - | - | - |
| 1787855412 | 16.11° C | 68% | 1013.1 hPa | 0 mm | - | - | - |
| 1787854523 | 16.67° C | 68% | 1012.8 hPa | 0 mm | - | - | - |
| 1787853611 | 16.11° C | 72% | 1012.8 hPa | 0 mm | - | - | - |
| 1787852754 | 16.67° C | 71% | 1012.4 hPa | 0 mm | - | - | - |
| 1787851851 | 16.11° C | 72% | 1012.5 hPa | 0 mm | - | - | - |
| 1787850947 | 16.11° C | 71% | 1012.5 hPa | 0 mm | - | - | - |
| 1787850047 | 16.11° C | 70% | 1012.6 hPa | 0.25 mm | - | - | - |
| 1787849145 | 16.11° C | 70% | 1012.2 hPa | 0.25 mm | - | - | - |
| 1787848255 | 16.11° C | 71% | 1012 hPa | 0.25 mm | - | - | - |
| 1787847350 | 16.11° C | 76% | 1011.9 hPa | 1.78 mm | - | - | - |
| 1787846443 | 15.56° C | 84% | 1012 hPa | 3.05 mm | - | - | - |
| 1787845541 | 15° C | 86% | 1011.8 hPa | 3.05 mm | - | - | - |
| 1787844642 | 14.44° C | 86% | 1011.8 hPa | 3.05 mm | - | - | - |
| 1787843741 | 16.11° C | 79% | 1011.9 hPa | 1.52 mm | - | - | - |
| 1787842839 | 16.67° C | 77% | 1011.5 hPa | 0 mm | - | - | - |
| 1787841938 | 16.67° C | 79% | 1011.6 hPa | 0.25 mm | - | - | - |
| 1787841053 | 16.11° C | 80% | 1011.3 hPa | 0.76 mm | - | - | - |
| 1787840138 | 15° C | 84% | 1011.3 hPa | 1.02 mm | - | - | - |
| 1787839234 | 15° C | 85% | 1011.2 hPa | 1.02 mm | - | - | - |
| 1787838332 | 15° C | 82% | 1011.5 hPa | 0.51 mm | - | - | - |
| 1787837436 | 15.56° C | 81% | 1011.7 hPa | 0.25 mm | - | - | - |
| 1787836526 | 16.11° C | 78% | 1011.3 hPa | 0 mm | - | - | - |
* Rain latest hour (hover to see other rain measurements)
** Current wind speed in m/s (hover to see current wind gust speed)